Time;durP1;ratioP1;P1;durP2;ratioP2;P2;SDS_P1;SDS_P2;PMS_P1;PMS_P2;Temp;Humidity;BMP_temperature;BMP_pressure;BME280_temperature;BME280_humidity;BME280_pressure;Samples;Min_cycle;Max_cycle;Signal;HPM_P1;HPM_P2
2021/06/10 00:01:51;;;;;;;14.33;13.13;;;;;;;;;;5056634;28;20471;-76
2021/06/10 00:04:17;;;;;;;14.43;13.13;;;;;;;;;;5067978;28;20418;-76
2021/06/10 00:06:43;;;;;;;13.40;12.30;;;;;;;;;;5055638;28;20937;-76
2021/06/10 00:09:09;;;;;;;14.30;12.43;;;;;;;;;;5055361;28;20493;-76
2021/06/10 00:11:35;;;;;;;14.70;13.30;;;;;;;;;;5055607;28;20440;-74
2021/06/10 00:14:01;;;;;;;12.40;11.17;;;;;;;;;;5055261;28;20411;-75
2021/06/10 00:16:27;;;;;;;14.23;13.03;;;;;;;;;;5055630;28;20427;-75
2021/06/10 00:18:56;;;;;;;12.50;11.50;;;;;;;;;;5055467;28;20881;-75
2021/06/10 00:21:22;;;;;;;13.73;12.50;;;;;;;;;;5055557;28;20471;-75
2021/06/10 00:23:48;;;;;;;13.87;12.53;;;;;;;;;;5055599;28;20445;-75
2021/06/10 00:26:14;;;;;;;14.73;13.53;;;;;;;;;;5055257;28;20403;-77
2021/06/10 00:28:40;;;;;;;14.67;13.37;;;;;;;;;;5057168;28;20422;-76
2021/06/10 00:31:06;;;;;;;14.03;12.80;;;;;;;;;;5055355;28;20784;-78
2021/06/10 00:33:33;;;;;;;13.83;12.63;;;;;;;;;;5055103;28;20506;-74
2021/06/10 00:35:59;;;;;;;12.07;11.07;;;;;;;;;;5054264;28;20439;-74
2021/06/10 00:38:25;;;;;;;13.90;12.70;;;;;;;;;;5054797;28;20501;-75
2021/06/10 00:40:51;;;;;;;12.63;11.60;;;;;;;;;;5055341;28;20570;-74
2021/06/10 00:43:18;;;;;;;12.63;11.20;;;;;;;;;;5055018;28;20414;-76
2021/06/10 00:45:44;;;;;;;11.73;10.73;;;;;;;;;;5055241;28;20412;-74
2021/06/10 00:48:10;;;;;;;12.50;11.23;;;;;;;;;;5060568;28;20407;-75
2021/06/10 00:50:40;;;;;;;13.20;12.00;;;;;;;;;;5061273;28;20440;-75
2021/06/10 00:53:07;;;;;;;14.10;12.90;;;;;;;;;;5060544;28;20415;-75
2021/06/10 00:55:33;;;;;;;13.70;12.50;;;;;;;;;;5054976;28;20429;-76
2021/06/10 00:57:59;;;;;;;13.80;12.70;;;;;;;;;;5054726;28;20422;-75
2021/06/10 01:00:25;;;;;;;14.50;13.30;;;;;;;;;;5055077;28;20419;-76
2021/06/10 01:02:52;;;;;;;13.10;12.00;;;;;;;;;;5054710;28;20499;-75
2021/06/10 01:05:18;;;;;;;13.60;12.40;;;;;;;;;;5054481;28;20832;-75
2021/06/10 01:07:55;;;;;;;11.57;10.37;;;;;;;;;;5054534;28;20796;-75
2021/06/10 01:10:27;;;;;;;11.13;10.23;;;;;;;;;;5054711;28;20414;-76
2021/06/10 01:13:06;;;;;;;12.83;11.73;;;;;;;;;;5054310;28;20415;-75
2021/06/10 01:15:35;;;;;;;14.40;13.00;;;;;;;;;;5054830;28;20838;-75
2021/06/10 01:18:01;;;;;;;13.63;12.43;;;;;;;;;;5054597;28;20494;-76
2021/06/10 01:20:28;;;;;;;13.17;12.03;;;;;;;;;;5054521;28;20415;-76
2021/06/10 01:22:57;;;;;;;12.87;11.77;;;;;;;;;;5054225;28;20420;-75
2021/06/10 01:25:29;;;;;;;13.27;12.10;;;;;;;;;;5054530;28;20499;-76
2021/06/10 01:27:57;;;;;;;13.47;12.37;;;;;;;;;;5055285;28;20437;-74
2021/06/10 01:30:26;;;;;;;13.40;12.27;;;;;;;;;;5054102;28;20423;-74
2021/06/10 01:32:54;;;;;;;13.87;12.67;;;;;;;;;;5053793;28;20404;-75
2021/06/10 01:35:22;;;;;;;14.73;13.50;;;;;;;;;;5054169;28;20410;-75
2021/06/10 01:37:49;;;;;;;14.03;12.83;;;;;;;;;;5053887;28;20470;-75
2021/06/10 01:40:15;;;;;;;15.33;13.93;;;;;;;;;;5053937;28;20422;-75
2021/06/10 01:42:42;;;;;;;15.37;14.07;;;;;;;;;;5053768;28;20434;-75
2021/06/10 01:45:09;;;;;;;15.43;14.03;;;;;;;;;;5053600;28;20414;-76
2021/06/10 01:47:36;;;;;;;14.77;13.30;;;;;;;;;;5054213;28;20821;-75
2021/06/10 01:50:03;;;;;;;14.03;12.83;;;;;;;;;;5073425;28;20418;-76
2021/06/10 01:52:29;;;;;;;14.23;13.13;;;;;;;;;;5056062;28;20501;-76
2021/06/10 01:54:56;;;;;;;12.80;11.73;;;;;;;;;;5053589;28;20414;-75
2021/06/10 01:57:22;;;;;;;14.20;13.00;;;;;;;;;;5053708;28;20536;-76
2021/06/10 01:59:48;;;;;;;14.77;13.40;;;;;;;;;;5053707;28;20438;-76
2021/06/10 02:02:15;;;;;;;14.10;12.80;;;;;;;;;;5053430;28;20467;-78
2021/06/10 02:04:41;;;;;;;12.80;11.70;;;;;;;;;;5053712;28;20422;-75
2021/06/10 02:07:08;;;;;;;14.40;12.93;;;;;;;;;;5053620;28;20431;-75
2021/06/10 02:09:35;;;;;;;13.77;12.47;;;;;;;;;;5064234;28;20414;-74
2021/06/10 02:12:01;;;;;;;12.83;11.80;;;;;;;;;;5055564;28;20449;-74
2021/06/10 02:14:28;;;;;;;13.47;12.37;;;;;;;;;;5053309;28;20477;-75
2021/06/10 02:16:54;;;;;;;13.37;12.07;;;;;;;;;;5053251;28;20823;-75
2021/06/10 02:19:20;;;;;;;13.30;12.17;;;;;;;;;;5053054;28;20411;-75
2021/06/10 02:21:46;;;;;;;11.53;10.63;;;;;;;;;;5053094;28;20997;-74
2021/06/10 02:24:14;;;;;;;12.30;11.10;;;;;;;;;;5053227;28;20416;-75
2021/06/10 02:26:41;;;;;;;13.07;11.70;;;;;;;;;;5053176;28;20868;-76
2021/06/10 02:29:07;;;;;;;13.23;12.13;;;;;;;;;;5055776;28;20952;-75
2021/06/10 02:31:33;;;;;;;13.03;12.03;;;;;;;;;;5053211;28;20521;-76
2021/06/10 02:33:59;;;;;;;13.30;12.20;;;;;;;;;;5052985;28;20896;-76
2021/06/10 02:36:26;;;;;;;14.63;13.13;;;;;;;;;;5053575;28;20791;-75
2021/06/10 02:38:54;;;;;;;14.67;13.30;;;;;;;;;;5053185;28;20762;-75
2021/06/10 02:41:22;;;;;;;15.40;14.10;;;;;;;;;;5051363;28;20481;-76
2021/06/10 02:43:50;;;;;;;14.00;12.80;;;;;;;;;;5052792;28;20443;-76
2021/06/10 02:46:16;;;;;;;13.40;12.20;;;;;;;;;;5052967;28;20445;-75
2021/06/10 02:48:43;;;;;;;13.83;12.73;;;;;;;;;;5063210;28;20417;-76
2021/06/10 02:51:10;;;;;;;14.20;13.00;;;;;;;;;;5059760;28;20436;-76
2021/06/10 02:53:37;;;;;;;13.60;12.30;;;;;;;;;;5072359;28;20488;-75
2021/06/10 02:56:04;;;;;;;13.17;12.17;;;;;;;;;;5052834;28;20507;-75
2021/06/10 02:58:31;;;;;;;14.23;12.93;;;;;;;;;;5065635;28;20406;-74
2021/06/10 03:00:57;;;;;;;14.00;12.80;;;;;;;;;;5059947;28;20461;-76
2021/06/10 03:03:24;;;;;;;14.87;13.50;;;;;;;;;;5058678;28;20924;-75
2021/06/10 03:05:51;;;;;;;13.73;12.53;;;;;;;;;;5052376;28;20461;-74
2021/06/10 03:08:18;;;;;;;13.20;12.10;;;;;;;;;;5052382;28;20406;-75
2021/06/10 03:10:44;;;;;;;14.13;12.93;;;;;;;;;;5052555;28;20504;-75
2021/06/10 03:13:14;;;;;;;14.73;13.50;;;;;;;;;;5052421;28;20418;-74
2021/06/10 03:15:41;;;;;;;14.40;13.07;;;;;;;;;;5052243;28;20420;-75
2021/06/10 03:18:07;;;;;;;13.70;12.60;;;;;;;;;;5052696;28;20412;-75
2021/06/10 03:20:34;;;;;;;14.60;13.27;;;;;;;;;;5052246;28;20789;-74
2021/06/10 03:23:01;;;;;;;14.97;13.67;;;;;;;;;;5052262;28;20448;-75
2021/06/10 03:25:27;;;;;;;15.00;13.60;;;;;;;;;;5052437;28;20502;-75
2021/06/10 03:27:53;;;;;;;14.77;13.47;;;;;;;;;;5053255;28;20756;-76
2021/06/10 03:30:20;;;;;;;13.97;12.80;;;;;;;;;;5061705;28;20886;-75
2021/06/10 03:32:46;;;;;;;14.70;13.40;;;;;;;;;;5056247;28;20425;-75
2021/06/10 03:35:13;;;;;;;14.47;13.17;;;;;;;;;;5052253;28;20406;-75
2021/06/10 03:37:39;;;;;;;14.53;13.33;;;;;;;;;;5052121;28;20419;-75
2021/06/10 03:40:10;;;;;;;14.30;13.00;;;;;;;;;;5052004;28;20867;-76
2021/06/10 03:42:36;;;;;;;15.57;14.30;;;;;;;;;;5052351;28;20470;-75
2021/06/10 03:45:03;;;;;;;15.43;13.93;;;;;;;;;;5051934;28;20490;-75
2021/06/10 03:47:29;;;;;;;13.27;12.17;;;;;;;;;;5052122;28;20425;-76
2021/06/10 03:49:55;;;;;;;13.50;12.20;;;;;;;;;;5071489;28;20421;-76
2021/06/10 03:52:25;;;;;;;15.10;13.90;;;;;;;;;;5055428;28;20433;-76
2021/06/10 03:54:51;;;;;;;12.70;11.67;;;;;;;;;;5051851;28;20428;-76
2021/06/10 03:57:17;;;;;;;13.27;12.10;;;;;;;;;;5052130;28;20556;-75
2021/06/10 03:59:44;;;;;;;13.67;12.53;;;;;;;;;;5051807;28;20418;-76
2021/06/10 04:02:10;;;;;;;13.00;11.03;;;;;;;;;;5052159;28;20482;-75
2021/06/10 04:04:36;;;;;;;14.57;11.70;;;;;;;;;;5051880;28;20749;-77
2021/06/10 04:07:02;;;;;;;12.40;11.30;;;;;;;;;;5051869;28;20484;-76
2021/06/10 04:09:28;;;;;;;10.90;9.83;;;;;;;;;;5052244;28;20979;-77
2021/06/10 04:11:54;;;;;;;11.27;10.13;;;;;;;;;;5055486;28;20513;-75
2021/06/10 04:14:20;;;;;;;11.40;10.40;;;;;;;;;;5055629;28;20411;-76
2021/06/10 04:16:46;;;;;;;11.37;10.37;;;;;;;;;;5055810;28;20422;-75
2021/06/10 04:19:13;;;;;;;11.23;10.13;;;;;;;;;;5055457;28;20726;-76
2021/06/10 04:21:39;;;;;;;10.67;9.87;;;;;;;;;;5055938;28;20847;-77
2021/06/10 04:24:05;;;;;;;11.40;10.40;;;;;;;;;;5055455;28;20418;-76
2021/06/10 04:26:31;;;;;;;12.33;11.17;;;;;;;;;;5055635;28;20415;-75
2021/06/10 04:28:57;;;;;;;10.63;9.70;;;;;;;;;;5057152;28;20407;-74
2021/06/10 04:31:23;;;;;;;11.23;10.23;;;;;;;;;;5055196;28;20435;-75
2021/06/10 04:33:49;;;;;;;10.40;9.60;;;;;;;;;;5055356;28;20907;-75
2021/06/10 04:36:16;;;;;;;11.50;10.60;;;;;;;;;;5055336;28;20446;-76
2021/06/10 04:38:42;;;;;;;10.80;9.90;;;;;;;;;;5055083;28;20540;-76
2021/06/10 04:41:08;;;;;;;11.40;10.33;;;;;;;;;;5053551;28;20466;-76
2021/06/10 04:43:34;;;;;;;11.20;10.17;;;;;;;;;;5054970;28;20426;-76
2021/06/10 04:46:00;;;;;;;10.30;9.50;;;;;;;;;;5054900;28;20872;-76
2021/06/10 04:48:27;;;;;;;10.40;9.40;;;;;;;;;;5062835;28;20759;-75
2021/06/10 04:50:54;;;;;;;9.80;9.00;;;;;;;;;;5061697;28;20916;-76
2021/06/10 04:53:20;;;;;;;10.73;9.80;;;;;;;;;;5074785;28;20414;-75
2021/06/10 04:55:46;;;;;;;10.67;9.77;;;;;;;;;;5075378;28;20421;-75
2021/06/10 04:58:12;;;;;;;12.57;9.73;;;;;;;;;;5074905;28;20501;-75
2021/06/10 05:00:39;;;;;;;10.43;9.47;;;;;;;;;;5075068;28;20469;-75
2021/06/10 05:03:05;;;;;;;10.57;9.70;;;;;;;;;;5074847;28;20407;-75
2021/06/10 05:05:31;;;;;;;9.87;8.97;;;;;;;;;;5074497;28;20462;-76
2021/06/10 05:07:58;;;;;;;10.50;9.70;;;;;;;;;;5074922;28;20571;-76
2021/06/10 05:10:24;;;;;;;10.90;9.90;;;;;;;;;;5074363;28;20455;-76
2021/06/10 05:12:50;;;;;;;10.70;9.80;;;;;;;;;;5065334;28;20400;-76
2021/06/10 05:15:16;;;;;;;11.20;10.20;;;;;;;;;;5054709;28;20432;-76
2021/06/10 05:17:42;;;;;;;10.00;9.20;;;;;;;;;;5054479;28;20718;-76
2021/06/10 05:20:08;;;;;;;11.27;10.47;;;;;;;;;;5054450;28;20518;-77
2021/06/10 05:22:34;;;;;;;10.50;9.70;;;;;;;;;;5053738;28;20463;-77
2021/06/10 05:25:00;;;;;;;10.50;9.60;;;;;;;;;;5054392;28;20411;-75
2021/06/10 05:27:26;;;;;;;12.57;10.40;;;;;;;;;;5054397;28;20431;-76
2021/06/10 05:29:52;;;;;;;11.37;10.40;;;;;;;;;;5055079;28;20455;-76
2021/06/10 05:32:18;;;;;;;10.17;9.37;;;;;;;;;;5054370;28;20432;-76
2021/06/10 05:34:44;;;;;;;8.90;8.20;;;;;;;;;;5053946;28;20949;-76
2021/06/10 05:37:10;;;;;;;8.90;8.10;;;;;;;;;;5054224;28;20419;-76
2021/06/10 05:39:36;;;;;;;9.70;8.80;;;;;;;;;;5053817;28;20420;-76
2021/06/10 05:42:02;;;;;;;8.60;8.00;;;;;;;;;;5054157;28;20462;-76
2021/06/10 05:44:28;;;;;;;9.50;8.70;;;;;;;;;;5053770;28;20407;-75
2021/06/10 05:46:54;;;;;;;9.93;8.50;;;;;;;;;;5053913;28;20407;-75
2021/06/10 05:49:20;;;;;;;10.00;9.20;;;;;;;;;;5068908;28;20416;-75
2021/06/10 05:51:47;;;;;;;9.33;8.63;;;;;;;;;;5062437;28;20793;-77
2021/06/10 05:54:13;;;;;;;10.60;9.70;;;;;;;;;;5053917;28;20529;-76
2021/06/10 05:56:39;;;;;;;10.20;9.30;;;;;;;;;;5053679;28;20910;-76
2021/06/10 05:59:05;;;;;;;10.30;9.40;;;;;;;;;;5053511;28;20418;-76
2021/06/10 06:01:31;;;;;;;9.53;8.63;;;;;;;;;;5053597;28;20512;-77
2021/06/10 06:03:57;;;;;;;7.97;7.30;;;;;;;;;;5053689;28;20420;-76
2021/06/10 06:06:23;;;;;;;8.37;7.57;;;;;;;;;;5053697;28;20446;-76
2021/06/10 06:08:49;;;;;;;8.00;7.30;;;;;;;;;;5053346;28;20710;-76
2021/06/10 06:11:16;;;;;;;7.70;7.10;;;;;;;;;;5053146;28;20753;-76
2021/06/10 06:16:12;;;;;;;6.63;6.03;;;;;;;;;;5053701;28;20504;-76
2021/06/10 06:18:39;;;;;;;7.13;6.43;;;;;;;;;;5053444;28;20419;-76
2021/06/10 06:21:05;;;;;;;7.90;7.30;;;;;;;;;;5053251;28;20558;-77
2021/06/10 06:23:32;;;;;;;7.63;6.93;;;;;;;;;;5053025;28;20485;-76
2021/06/10 06:25:58;;;;;;;7.00;6.30;;;;;;;;;;5053327;28;20477;-76
2021/06/10 06:28:24;;;;;;;6.97;6.47;;;;;;;;;;5055063;28;20414;-76
2021/06/10 06:30:50;;;;;;;7.07;6.47;;;;;;;;;;5053776;28;20442;-76
2021/06/10 06:33:16;;;;;;;7.33;6.73;;;;;;;;;;5051882;28;20781;-76
2021/06/10 06:35:43;;;;;;;8.47;5.70;;;;;;;;;;5053362;28;20422;-76
2021/06/10 06:38:10;;;;;;;12.43;11.33;;;;;;;;;;5052797;28;20420;-76
2021/06/10 06:40:36;;;;;;;8.63;7.83;;;;;;;;;;5052762;28;20492;-77
2021/06/10 06:43:02;;;;;;;8.73;8.03;;;;;;;;;;5052563;28;20422;-76
2021/06/10 06:45:28;;;;;;;9.03;8.33;;;;;;;;;;5052891;28;20418;-76
2021/06/10 06:47:55;;;;;;;8.17;7.47;;;;;;;;;;5059675;28;20471;-75
2021/06/10 06:50:21;;;;;;;8.27;7.57;;;;;;;;;;5067503;28;20419;-76
2021/06/10 06:52:47;;;;;;;7.10;6.50;;;;;;;;;;5060602;28;20418;-76
2021/06/10 06:55:13;;;;;;;10.10;7.43;;;;;;;;;;5049877;28;20777;-77
2021/06/10 06:57:39;;;;;;;8.10;7.10;;;;;;;;;;5064900;28;20830;-76
2021/06/10 07:00:05;;;;;;;8.27;7.57;;;;;;;;;;5052924;28;20514;-75
2021/06/10 07:02:31;;;;;;;7.60;7.00;;;;;;;;;;5054801;28;20827;-75
2021/06/10 07:04:57;;;;;;;7.87;7.07;;;;;;;;;;5059914;28;20416;-76
2021/06/10 07:07:23;;;;;;;11.83;10.83;;;;;;;;;;5048587;28;20458;-75
2021/06/10 07:09:49;;;;;;;8.13;7.43;;;;;;;;;;5048461;28;20825;-76
2021/06/10 07:12:15;;;;;;;9.73;8.93;;;;;;;;;;5049500;28;20478;-75
2021/06/10 07:14:43;;;;;;;9.13;8.43;;;;;;;;;;5055083;28;20419;-75
2021/06/10 07:17:09;;;;;;;9.63;7.80;;;;;;;;;;5055792;28;20764;-76
2021/06/10 07:19:35;;;;;;;8.30;7.60;;;;;;;;;;5055055;28;20411;-76
2021/06/10 07:22:01;;;;;;;9.37;7.20;;;;;;;;;;5048422;28;20810;-76
2021/06/10 07:24:27;;;;;;;7.93;7.23;;;;;;;;;;5048327;28;20960;-76
2021/06/10 07:26:53;;;;;;;7.70;7.03;;;;;;;;;;5048658;28;20499;-75
2021/06/10 07:29:19;;;;;;;11.17;8.40;;;;;;;;;;5050174;28;20498;-75
2021/06/10 07:31:46;;;;;;;10.13;8.07;;;;;;;;;;5048623;28;20493;-76
2021/06/10 07:34:12;;;;;;;9.13;8.23;;;;;;;;;;5048376;28;20411;-76
2021/06/10 07:36:38;;;;;;;8.50;7.43;;;;;;;;;;5055450;28;20502;-76
2021/06/10 07:39:06;;;;;;;9.40;7.27;;;;;;;;;;5068627;28;20414;-75
2021/06/10 07:41:32;;;;;;;9.10;7.53;;;;;;;;;;5049082;28;20498;-75
2021/06/10 07:43:58;;;;;;;10.27;9.10;;;;;;;;;;5060588;28;20784;-76
2021/06/10 07:46:25;;;;;;;9.30;8.40;;;;;;;;;;5072161;28;20410;-75
2021/06/10 07:48:51;;;;;;;8.37;7.47;;;;;;;;;;5068612;28;20422;-75
2021/06/10 07:51:17;;;;;;;8.60;7.80;;;;;;;;;;5060260;28;20443;-76
2021/06/10 07:53:43;;;;;;;8.80;7.90;;;;;;;;;;5072163;28;20418;-76
2021/06/10 07:56:09;;;;;;;8.53;7.10;;;;;;;;;;5072706;28;20426;-76
2021/06/10 07:58:35;;;;;;;7.80;6.77;;;;;;;;;;5058788;28;20411;-76
2021/06/10 08:01:01;;;;;;;9.33;7.40;;;;;;;;;;5064211;28;21312;-76
2021/06/10 08:03:27;;;;;;;8.30;7.03;;;;;;;;;;5052066;28;20447;-76
2021/06/10 08:05:56;;;;;;;13.30;7.87;;;;;;;;;;5052054;28;20431;-76
2021/06/10 08:08:23;;;;;;;10.90;7.67;;;;;;;;;;5051816;28;20467;-76
2021/06/10 08:10:50;;;;;;;8.10;7.00;;;;;;;;;;5055501;28;20916;-75
2021/06/10 08:13:17;;;;;;;6.50;6.00;;;;;;;;;;5059048;28;20420;-76
2021/06/10 08:15:45;;;;;;;9.40;7.73;;;;;;;;;;5052245;28;20418;-76
2021/06/10 08:18:11;;;;;;;10.03;9.03;;;;;;;;;;5051856;28;20434;-75
2021/06/10 08:20:37;;;;;;;10.23;9.43;;;;;;;;;;5051679;28;20447;-75
2021/06/10 08:23:04;;;;;;;12.53;11.43;;;;;;;;;;5064994;28;20419;-76
2021/06/10 08:25:31;;;;;;;11.30;10.10;;;;;;;;;;5051753;28;20426;-76
2021/06/10 08:27:57;;;;;;;9.77;8.97;;;;;;;;;;5052165;28;20415;-75
2021/06/10 08:30:24;;;;;;;9.60;8.90;;;;;;;;;;5052026;28;20462;-75
2021/06/10 08:32:50;;;;;;;12.67;11.57;;;;;;;;;;5051358;28;20481;-76
2021/06/10 08:35:17;;;;;;;10.70;9.70;;;;;;;;;;5051314;28;20419;-75
2021/06/10 08:37:43;;;;;;;12.90;11.90;;;;;;;;;;5049821;28;21043;-76
2021/06/10 08:40:10;;;;;;;9.93;9.03;;;;;;;;;;5051443;28;21057;-76
2021/06/10 08:42:37;;;;;;;9.30;8.50;;;;;;;;;;5064656;28;20470;-76
2021/06/10 08:45:04;;;;;;;8.80;8.10;;;;;;;;;;5071142;28;20505;-74
2021/06/10 08:47:31;;;;;;;9.80;8.87;;;;;;;;;;5065705;28;20412;-76
2021/06/10 08:49:57;;;;;;;9.70;8.90;;;;;;;;;;5070617;28;20775;-76
2021/06/10 08:52:23;;;;;;;10.20;9.23;;;;;;;;;;5070897;28;20445;-75
2021/06/10 08:54:49;;;;;;;11.83;10.90;;;;;;;;;;5071065;28;20501;-78
2021/06/10 08:57:15;;;;;;;10.87;10.07;;;;;;;;;;5070348;28;20552;-75
2021/06/10 08:59:41;;;;;;;11.87;10.67;;;;;;;;;;5070879;28;20418;-76
2021/06/10 09:02:08;;;;;;;9.60;8.70;;;;;;;;;;5055016;28;20813;-76
2021/06/10 09:04:34;;;;;;;12.17;11.17;;;;;;;;;;5050770;28;20420;-75
2021/06/10 09:07:03;;;;;;;9.90;9.10;;;;;;;;;;5050736;28;20435;-75
2021/06/10 09:09:34;;;;;;;11.23;10.13;;;;;;;;;;5050776;28;20422;-76
2021/06/10 09:12:05;;;;;;;10.80;10.00;;;;;;;;;;5050977;28;20439;-76
2021/06/10 09:14:32;;;;;;;11.80;10.90;;;;;;;;;;5050881;28;20447;-76
2021/06/10 09:16:58;;;;;;;12.70;11.60;;;;;;;;;;5050974;28;20439;-76
2021/06/10 09:19:30;;;;;;;13.10;11.67;;;;;;;;;;5050634;28;20498;-76
2021/06/10 09:21:56;;;;;;;14.70;13.50;;;;;;;;;;5050841;28;20474;-76
2021/06/10 09:24:30;;;;;;;12.90;11.70;;;;;;;;;;5050376;28;21200;-75
2021/06/10 09:26:56;;;;;;;11.60;10.70;;;;;;;;;;5057909;28;20410;-74
2021/06/10 09:29:33;;;;;;;13.37;12.20;;;;;;;;;;5055921;28;20958;-75
2021/06/10 09:31:59;;;;;;;11.80;10.70;;;;;;;;;;5050364;28;20462;-76
2021/06/10 09:34:30;;;;;;;11.73;10.80;;;;;;;;;;5050024;28;20466;-76
2021/06/10 09:36:56;;;;;;;15.50;12.80;;;;;;;;;;5050539;28;20456;-75
2021/06/10 09:39:26;;;;;;;12.60;11.70;;;;;;;;;;5061903;28;20561;-76
2021/06/10 09:42:01;;;;;;;13.27;12.17;;;;;;;;;;5058784;28;20469;-76
2021/06/10 09:45:01;;;;;;;13.13;12.07;;;;;;;;;;5069956;28;20903;-75
2021/06/10 09:47:31;;;;;;;14.97;13.80;;;;;;;;;;5063269;28;20781;-75
2021/06/10 09:49:57;;;;;;;14.10;13.00;;;;;;;;;;5060337;28;20411;-74
2021/06/10 09:52:23;;;;;;;12.63;11.60;;;;;;;;;;5069711;28;20435;-76
2021/06/10 09:54:52;;;;;;;12.00;11.00;;;;;;;;;;5069958;28;20744;-77
2021/06/10 09:57:19;;;;;;;14.73;13.50;;;;;;;;;;5070057;28;20908;-75
2021/06/10 09:59:45;;;;;;;13.50;12.40;;;;;;;;;;5069686;28;20497;-75
2021/06/10 10:02:15;;;;;;;13.93;12.63;;;;;;;;;;5068400;28;20823;-76
2021/06/10 10:05:00;;;;;;;13.90;12.47;;;;;;;;;;5058660;28;20920;-74
2021/06/10 10:07:30;;;;;;;11.40;10.43;;;;;;;;;;5049767;28;20461;-77
2021/06/10 10:09:57;;;;;;;12.73;11.73;;;;;;;;;;5049724;28;20419;-77
2021/06/10 10:12:25;;;;;;;12.87;11.90;;;;;;;;;;5049946;28;21014;-76
2021/06/10 10:14:51;;;;;;;12.77;11.80;;;;;;;;;;5049540;28;20904;-76
2021/06/10 10:17:17;;;;;;;13.60;12.67;;;;;;;;;;5049465;28;20420;-76
2021/06/10 10:19:43;;;;;;;11.87;11.07;;;;;;;;;;5050259;28;20477;-76
2021/06/10 10:22:11;;;;;;;14.73;11.23;;;;;;;;;;5062029;28;20549;-77
2021/06/10 10:24:38;;;;;;;13.57;12.67;;;;;;;;;;5049594;28;20513;-77
2021/06/10 10:27:05;;;;;;;13.90;12.90;;;;;;;;;;5049690;28;20420;-76
2021/06/10 10:29:31;;;;;;;11.90;11.00;;;;;;;;;;5051340;28;20819;-75
2021/06/10 10:31:58;;;;;;;10.40;9.70;;;;;;;;;;5049447;28;20438;-76
2021/06/10 10:34:27;;;;;;;11.00;10.30;;;;;;;;;;5062538;28;20441;-75
2021/06/10 10:36:53;;;;;;;13.53;12.60;;;;;;;;;;5049549;28;20419;-74
2021/06/10 10:39:28;;;;;;;12.40;11.60;;;;;;;;;;5049092;28;20415;-76
2021/06/10 10:41:55;;;;;;;12.13;11.27;;;;;;;;;;5058236;28;20464;-76
2021/06/10 10:44:26;;;;;;;11.90;11.10;;;;;;;;;;5068710;28;20888;-76
2021/06/10 10:47:02;;;;;;;10.50;9.70;;;;;;;;;;5068822;28;20767;-77
2021/06/10 10:49:29;;;;;;;10.33;9.60;;;;;;;;;;5059155;28;20420;-76
2021/06/10 10:52:16;;;;;;;9.87;9.27;;;;;;;;;;5062020;28;21006;-76
2021/06/10 10:54:44;;;;;;;9.37;8.60;;;;;;;;;;5068535;28;20501;-75
2021/06/10 10:57:42;;;;;;;8.97;8.40;;;;;;;;;;5068748;28;20476;-76
2021/06/10 11:00:09;;;;;;;11.17;10.47;;;;;;;;;;5068970;28;20426;-76
2021/06/10 11:02:41;;;;;;;11.23;10.43;;;;;;;;;;5068848;28;20490;-75
2021/06/10 11:05:09;;;;;;;11.13;10.30;;;;;;;;;;5068404;28;20819;-76
2021/06/10 11:07:39;;;;;;;10.80;10.00;;;;;;;;;;5069109;28;20422;-77
2021/06/10 11:10:05;;;;;;;10.27;9.67;;;;;;;;;;5052883;28;20411;-76
2021/06/10 11:12:50;;;;;;;10.30;9.70;;;;;;;;;;5048803;28;20473;-77
2021/06/10 11:15:31;;;;;;;12.20;11.30;;;;;;;;;;5048544;28;20408;-75
2021/06/10 11:18:01;;;;;;;12.30;11.27;;;;;;;;;;5048349;28;20407;-76
2021/06/10 11:20:36;;;;;;;11.10;10.40;;;;;;;;;;5048301;28;20428;-76
2021/06/10 11:23:12;;;;;;;10.50;9.80;;;;;;;;;;5048385;28;20490;-75
2021/06/10 11:25:41;;;;;;;10.20;9.50;;;;;;;;;;5059705;28;21232;-78
2021/06/10 11:28:08;;;;;;;9.73;9.13;;;;;;;;;;5051209;28;20948;-76
2021/06/10 11:30:35;;;;;;;11.93;10.90;;;;;;;;;;5048817;28;20497;-75
2021/06/10 11:33:03;;;;;;;10.63;9.93;;;;;;;;;;5048485;28;20500;-77
2021/06/10 11:35:32;;;;;;;10.67;9.97;;;;;;;;;;5048530;28;20415;-77
2021/06/10 11:37:59;;;;;;;11.23;10.27;;;;;;;;;;5048724;28;20525;-73
2021/06/10 11:40:25;;;;;;;11.27;10.47;;;;;;;;;;5048718;28;20738;-75
2021/06/10 11:42:51;;;;;;;9.10;8.50;;;;;;;;;;5062308;28;20867;-75
2021/06/10 11:45:27;;;;;;;7.97;7.47;;;;;;;;;;5048447;28;20511;-76
2021/06/10 11:47:54;;;;;;;10.73;10.03;;;;;;;;;;5050909;28;20410;-75
2021/06/10 11:50:47;;;;;;;7.67;7.20;;;;;;;;;;5068044;28;20444;-73
2021/06/10 11:53:19;;;;;;;10.53;9.83;;;;;;;;;;5045664;28;20542;-74
2021/06/10 11:55:47;;;;;;;10.07;9.47;;;;;;;;;;5048304;28;20415;-78
2021/06/10 11:58:16;;;;;;;9.93;9.20;;;;;;;;;;5048062;28;20423;-73
2021/06/10 12:00:43;;;;;;;9.23;8.53;;;;;;;;;;5048160;28;20446;-73
2021/06/10 12:03:13;;;;;;;10.60;9.90;;;;;;;;;;5048116;28;20511;-73
2021/06/10 12:05:52;;;;;;;10.50;9.83;;;;;;;;;;5048337;28;20443;-72
2021/06/10 12:08:31;;;;;;;8.60;8.00;;;;;;;;;;5051527;28;20549;-73
2021/06/10 12:11:07;;;;;;;9.57;8.97;;;;;;;;;;5053081;28;20547;-73
2021/06/10 12:13:37;;;;;;;8.20;7.70;;;;;;;;;;5054383;28;20917;-74
2021/06/10 12:16:05;;;;;;;8.63;8.13;;;;;;;;;;5047787;28;20419;-76
2021/06/10 12:18:32;;;;;;;10.00;9.30;;;;;;;;;;5048153;28;20415;-72
2021/06/10 12:21:00;;;;;;;10.30;9.70;;;;;;;;;;5048252;28;20435;-74
2021/06/10 12:23:27;;;;;;;11.20;10.50;;;;;;;;;;5057412;28;20464;-74
2021/06/10 12:25:54;;;;;;;9.73;8.93;;;;;;;;;;5048179;28;20426;-73
2021/06/10 12:28:32;;;;;;;11.00;10.17;;;;;;;;;;5048570;28;20459;-76
2021/06/10 12:31:10;;;;;;;10.73;10.03;;;;;;;;;;5048287;28;20532;-74
2021/06/10 12:33:36;;;;;;;9.20;8.60;;;;;;;;;;5061536;28;20417;-76
2021/06/10 12:36:04;;;;;;;11.80;11.00;;;;;;;;;;5054951;28;20416;-74
2021/06/10 12:38:37;;;;;;;9.53;8.83;;;;;;;;;;5051254;28;20947;-72
2021/06/10 12:41:14;;;;;;;11.23;10.63;;;;;;;;;;5053346;28;20499;-74
2021/06/10 12:43:40;;;;;;;9.70;9.10;;;;;;;;;;5071287;28;20414;-75
2021/06/10 12:46:07;;;;;;;10.30;9.60;;;;;;;;;;5071051;28;20414;-76
2021/06/10 12:48:35;;;;;;;11.03;10.43;;;;;;;;;;5071128;28;20431;-73
2021/06/10 12:51:21;;;;;;;9.93;9.33;;;;;;;;;;5070448;28;20525;-73
2021/06/10 12:53:52;;;;;;;11.27;10.47;;;;;;;;;;5070882;28;20934;-71
2021/06/10 12:56:26;;;;;;;12.83;11.93;;;;;;;;;;5071161;28;20421;-74
2021/06/10 12:58:52;;;;;;;13.67;12.77;;;;;;;;;;5070813;28;20406;-74
2021/06/10 13:01:18;;;;;;;13.70;12.70;;;;;;;;;;5070835;28;20509;-74
2021/06/10 13:03:51;;;;;;;12.17;11.17;;;;;;;;;;5053917;28;20451;-75
2021/06/10 13:06:22;;;;;;;15.37;14.20;;;;;;;;;;5050965;28;20466;-74
2021/06/10 13:08:48;;;;;;;13.73;12.70;;;;;;;;;;5050980;28;20420;-75
2021/06/10 13:11:17;;;;;;;12.13;11.33;;;;;;;;;;5050780;28;20443;-74
2021/06/10 13:13:44;;;;;;;11.13;10.20;;;;;;;;;;5050589;28;20403;-72
2021/06/10 13:16:13;;;;;;;14.87;13.80;;;;;;;;;;5050664;28;20473;-71
2021/06/10 13:18:39;;;;;;;14.47;13.40;;;;;;;;;;5050350;28;20995;-73
2021/06/10 13:21:16;;;;;;;14.47;13.47;;;;;;;;;;5050907;28;20871;-71
2021/06/10 13:23:51;;;;;;;14.60;13.37;;;;;;;;;;5058345;28;20417;-71
2021/06/10 13:26:22;;;;;;;12.07;11.17;;;;;;;;;;5070389;28;20422;-74
2021/06/10 13:28:53;;;;;;;12.90;11.90;;;;;;;;;;5061074;28;20410;-73
2021/06/10 13:31:27;;;;;;;14.50;13.40;;;;;;;;;;5050412;28;20435;-73
2021/06/10 13:33:55;;;;;;;14.07;12.97;;;;;;;;;;5050364;28;20416;-73
2021/06/10 13:37:05;;;;;;;11.70;10.90;;;;;;;;;;5050360;28;20412;-72
2021/06/10 13:39:11;;;;;;;15.80;14.60;;;;;;;;;;5044339;28;20519;-74
2021/06/10 13:41:37;;;;;;;12.60;11.57;;;;;;;;;;5056962;28;20603;-74
2021/06/10 13:44:04;;;;;;;11.20;10.33;;;;;;;;;;5069669;28;20495;-72
2021/06/10 13:46:30;;;;;;;13.37;12.37;;;;;;;;;;5070343;28;20517;-71
2021/06/10 13:48:56;;;;;;;14.03;13.07;;;;;;;;;;5070232;28;20410;-74
2021/06/10 13:51:22;;;;;;;14.53;13.10;;;;;;;;;;5061861;28;20428;-72
2021/06/10 13:53:48;;;;;;;13.73;12.63;;;;;;;;;;5061395;28;20523;-72
2021/06/10 13:56:15;;;;;;;13.43;12.30;;;;;;;;;;5062093;28;20520;-73
2021/06/10 13:58:41;;;;;;;12.70;11.80;;;;;;;;;;5049898;28;20423;-73
2021/06/10 14:01:08;;;;;;;12.37;11.47;;;;;;;;;;5050166;28;20556;-72
2021/06/10 14:03:34;;;;;;;15.20;13.93;;;;;;;;;;5049784;28;20416;-72
2021/06/10 14:06:00;;;;;;;12.03;11.23;;;;;;;;;;5050157;28;20435;-73
2021/06/10 14:08:26;;;;;;;13.77;12.77;;;;;;;;;;5049686;28;20408;-73
2021/06/10 14:10:52;;;;;;;14.70;13.67;;;;;;;;;;5049719;28;20435;-70
2021/06/10 14:13:18;;;;;;;12.97;11.97;;;;;;;;;;5049626;28;20446;-73
2021/06/10 14:15:45;;;;;;;14.87;13.77;;;;;;;;;;5049869;28;20423;-71
2021/06/10 14:18:12;;;;;;;12.53;11.53;;;;;;;;;;5049311;28;20510;-72
2021/06/10 14:20:39;;;;;;;13.57;12.27;;;;;;;;;;5049514;28;20443;-72
2021/06/10 14:23:07;;;;;;;15.00;13.90;;;;;;;;;;5049201;28;20888;-71
2021/06/10 14:25:33;;;;;;;12.20;11.20;;;;;;;;;;5049541;28;20793;-72
2021/06/10 14:28:01;;;;;;;13.20;12.10;;;;;;;;;;5051274;28;21147;-71
2021/06/10 14:32:57;;;;;;;13.20;12.30;;;;;;;;;;5049183;28;20505;-74
2021/06/10 14:35:23;;;;;;;12.43;11.50;;;;;;;;;;5047899;28;20438;-73